x

Cape San Martin - 55nm West Nw Of Morro Bay, Ca (46028) Weather Station

4:50am - Tue 30th Sep 2014 All times are PDT. -7 hours from GMT.

  • Wind
    25mph, 31mph gusts
  • Sea Temp 62°f
  • Air Temp 62°f
  • Sea Pressure 1012.9mb
  • Cape San Martin - 55nm West Nw Of Morro Bay, Ca
  • Cape San Martin - 55nm West Nw Of Morro Bay, Ca

More Historic Weather Station data

Upgrade to MSW Pro to gain access to the past 30 days of data for over 8000 Wavebouys and Weather Stations around the globe.

Join Pro

Comparision Forecast

View Surf forecast
   
Tue 09/30 4:50am  -   -   -  25 31 mph 1012.9mb 62f 62f
3:50am 7ft 6s 5s 22 27 mph 1012.9mb 62f 62f
2:50am 7ft 6s 5s 29 34 mph 1013mb 62f 62f
1:50am 7ft 7s 5s 27 34 mph 1013.4mb 62f 62f
12:50am  -   -   -  27 31 mph 1013.7mb 62f 63f
Mon 09/29 11:50pm  -   -   -  27 34 mph 1013.9mb 62f 63f
10:50pm 6.5ft 6s 5s 27 34 mph 1014mb 63f 63f
9:50pm 7ft 6s 5s 27 31 mph 1013.8mb 63f 62f
8:50pm 7ft 6s 5s 27 34 mph 1013.6mb 63f 62f
7:50pm 7ft 6s 5s 25 31 mph 1013.2mb 63f 62f
6:50pm 6ft 5s 5s 27 31 mph 1013.1mb 63f 63f
5:50pm 5ft 5s 5s 22 27 mph 1013.5mb 63f 63f
4:50pm 5ft 8s 5s 18 22 mph 1013.7mb 63f 63f
3:50pm  -   -   -  20 25 mph 1014.3mb 63f 63f
2:50pm 4.5ft 9s 5s 18 22 mph 1014.8mb 63f 63f
1:50pm 4.5ft 9s 5s 18 22 mph 1015.5mb 62f 63f
12:50pm 5ft 8s 5s 18 22 mph 1015.8mb 62f 62f
11:50am 5ft 8s 5s 16 20 mph 1016mb 62f 62f
10:50am 5.5ft 9s 6s 18 22 mph 1016.1mb 62f 62f
9:50am 5ft 8s 6s 16 18 mph 1015.5mb 62f 62f
8:50am 5ft 8s 6s 16 18 mph 1015.1mb 62f 62f
7:50am 6ft 8s 6s 16 18 mph 1014.7mb 62f 62f
6:50am  -   -   -  16 20 mph 1014.4mb 63f 62f
5:50am 5.5ft 10s 6s 13 18 mph 1014.2mb 63f 62f
4:50am 6ft 9s 6s 13 18 mph 1013.7mb 63f 62f
3:50am 6ft 9s 7s 13 18 mph 1013.8mb 63f 63f
2:50am 5ft 9s 6s 16
mph
1013.8mb - 63f
1:50am 5ft 9s 7s 13 18 mph 1013.9mb 64f 64f
12:50am 5ft 8s 6s 11 16 mph 1013.7mb 64f 63f
Sun 09/28 11:50pm 5.5ft 9s 7s 13 16 mph 1013.6mb 64f 64f
10:50pm 5.5ft 9s 7s 11 13 mph 1013.3mb 64f 64f
9:50pm 6.5ft 10s 7s 13 16 mph 1013.2mb 64f 64f
8:50pm 6ft 9s 7s 11 13 mph 1013mb 63f 64f
7:50pm 6.5ft 10s 7s 11 13 mph 1012.9mb 63f 63f
6:50pm  -   -   -  11 13 mph 1012.8mb 63f 63f
5:50pm 7ft 10s 7s 9 11 mph 1012.6mb 63f 63f
4:50pm 7.5ft 10s 7s 9 11 mph 1012.7mb 62f 63f
3:50pm 7.5ft 11s 7s 9 11 mph 1012.6mb 62f 63f
2:50pm 7ft 10s 7s 7 9 mph 1012.9mb 60f 63f
1:50pm 7ft 9s 7s 4 9 mph 1013.2mb 61f 63f
12:50pm 8ft 10s 7s 4 7 mph 1013.4mb 61f 63f
11:50am  -   -   -  4 7 mph 1013.3mb 60f 63f
10:50am 9ft 9s 7s 7 9 mph 1013.5mb 60f 63f
9:50am 9ft 10s 7s 11 13 mph 1013.4mb 60f 63f
7:50am 9ft 10s 7s 11 13 mph 1012mb 62f 63f
6:50am  -   -   -  13
mph
1011.5mb - 63f
5:50am 9ft 11s 7s 11 16 mph 1010.9mb 62f 63f
4:50am 8.5ft 9s 7s 16 18 mph 1011.1mb 63f 63f
3:50am  -   -   -  16 18 mph 1011mb 63f 63f
2:50am 8.5ft 9s 7s 16 22 mph 1011mb 62f 64f
1:50am 8ft 11s 7s 16 22 mph 1011mb 62f 64f
12:50am 8.5ft 8s 7s 18 22 mph 1011.1mb 62f 64f
Sat 09/27 11:50pm 9ft 10s 7s 20 25 mph 1011.2mb 62f 64f
10:50pm 9ft 10s 7s 20 25 mph 1011.4mb 62f 64f
9:50pm  -   -   -  20 25 mph 1011.6mb 62f 64f
8:50pm 9ft 10s 7s 22 25 mph 1011.9mb 62f 64f
7:50pm 9ft 9s 7s 20 25 mph 1011.6mb 62f 64f
6:50pm 9ft 8s 7s 25 29 mph 1011.3mb 62f 64f
5:50pm  -   -   -  22 27 mph 1011.1mb 62f 64f
4:50pm  -   -   -  20 25 mph 1011.4mb 62f 63f
3:50pm 8ft 11s 7s 22 27 mph 1011.8mb 62f 63f
2:50pm 7.5ft 8s 7s 18 22 mph 1012.4mb 61f 63f
1:50pm 8ft 11s 7s 16 20 mph 1013mb 60f 63f
12:50pm 7ft 11s 7s 18 22 mph 1013.5mb 60f 63f
11:50am 8ft 11s 7s 13 18 mph 1013.9mb 60f 63f
10:50am 8ft 11s 7s 16 18 mph 1014.1mb 60f 63f
9:50am 8ft 12s 7s 16 20 mph 1014.4mb 60f 63f
8:50am 8ft 12s 6s 18 22 mph 1014.2mb 60f 63f
7:50am 7.5ft 12s 6s 18 20 mph 1013.9mb 60f 63f
6:50am  -   -   -  20 22 mph 1013.8mb 61f 63f
5:50am 7ft 12s 6s 20 22 mph 1013.6mb 62f 64f
4:50am 7.5ft 12s 6s 20 25 mph 1013.3mb 62f 64f
3:50am 8ft 11s 7s 20 25 mph 1013.5mb 62f 64f
2:50am 7ft 12s 6s 20 25 mph 1013.8mb 62f 64f
1:50am 7ft 12s 6s 20 25 mph 1013.9mb 62f 64f
12:50am 7ft 12s 6s 22 27 mph 1013.8mb 62f 64f
Fri 09/26 11:50pm  -   -   -  20 25 mph 1013.7mb 62f 64f
10:50pm  -   -   -  20 25 mph 1013.6mb 62f 64f
9:50pm 8.5ft 11s 6s 22 27 mph 1013.7mb 62f 64f
8:50pm 8ft 12s 6s 25 31 mph 1013.6mb 62f 64f
7:50pm  -   -   -  25 29 mph 1013.2mb 62f 64f
6:50pm 8.5ft 12s 7s 22 29 mph 1012.7mb 62f 64f
5:50pm 8.5ft 11s 7s 25 31 mph 1012.7mb 63f 64f
4:50pm  -   -   -  25
mph
- - 64f
3:50pm  -   -   -  22 29 mph 1013.2mb 62f 64f
2:50pm  -   -   -  22 29 mph 1013.5mb 62f 64f
1:50pm 8ft 12s 7s 22 27 mph 1013.8mb 62f 64f
12:50pm  -   -   -  22 25 mph 1014.3mb 62f 64f